Time;durP1;ratioP1;P1;durP2;ratioP2;P2;SDS_P1;SDS_P2;PMS_P1;PMS_P2;Temp;Humidity;BMP_temperature;BMP_pressure;BME280_temperature;BME280_humidity;BME280_pressure;Samples;Min_cycle;Max_cycle;Signal;HPM_P1;HPM_P2
2021/08/04 00:01:33;;;;;;;2.28;2.20;;;13.20;89.50;;;;;;4977171;28;20081;-72
2021/08/04 00:04:00;;;;;;;4.88;2.10;;;13.30;90.00;;;;;;4977094;28;20029;-72
2021/08/04 00:06:28;;;;;;;2.20;2.10;;;13.40;88.20;;;;;;4977480;28;20019;-69
2021/08/04 00:08:57;;;;;;;2.20;2.10;;;13.40;87.30;;;;;;4975980;28;20027;-74
2021/08/04 00:11:25;;;;;;;2.17;2.08;;;13.50;86.90;;;;;;4975511;28;20033;-74
2021/08/04 00:13:52;;;;;;;1.92;1.83;;;13.50;87.70;;;;;;4976972;28;20037;-71
2021/08/04 00:16:20;;;;;;;2.08;1.98;;;13.60;86.40;;;;;;4977198;28;20039;-70
2021/08/04 00:18:47;;;;;;;2.30;2.20;;;13.60;86.80;;;;;;4976767;28;20357;-70
2021/08/04 00:21:15;;;;;;;2.10;1.90;;;13.60;86.10;;;;;;4976455;28;20154;-70
2021/08/04 00:23:42;;;;;;;2.28;2.00;;;13.70;85.10;;;;;;4975514;28;20027;-71
2021/08/04 00:26:10;;;;;;;2.60;2.50;;;13.70;85.30;;;;;;4976679;28;20055;-71
2021/08/04 00:28:37;;;;;;;2.20;2.20;;;13.80;85.70;;;;;;4976315;28;20468;-71
2021/08/04 00:31:04;;;;;;;2.20;2.10;;;13.80;86.10;;;;;;4976639;28;20019;-71
2021/08/04 00:33:32;;;;;;;2.40;2.20;;;13.90;85.20;;;;;;4976862;28;20109;-71
2021/08/04 00:35:59;;;;;;;2.40;2.30;;;13.80;84.80;;;;;;4976638;28;20172;-72
2021/08/04 00:38:26;;;;;;;2.00;2.00;;;13.80;85.00;;;;;;4976274;28;20106;-71
2021/08/04 00:40:55;;;;;;;2.20;2.10;;;13.80;84.80;;;;;;4974921;28;20073;-73
2021/08/04 00:43:22;;;;;;;1.92;1.83;;;13.90;84.30;;;;;;4975238;28;20023;-73
2021/08/04 00:45:50;;;;;;;1.90;1.80;;;13.90;84.40;;;;;;4976015;28;20053;-73
2021/08/04 00:48:18;;;;;;;1.75;1.73;;;13.80;83.80;;;;;;4976264;28;20015;-72
2021/08/04 00:50:46;;;;;;;1.83;1.73;;;13.90;83.70;;;;;;4977040;28;20074;-72
2021/08/04 00:53:28;;;;;;;2.10;2.00;;;14.00;83.70;;;;;;4977664;28;20106;-72
2021/08/04 00:55:58;;;;;;;2.00;1.90;;;14.00;83.50;;;;;;4977734;28;20027;-72
2021/08/04 00:58:37;;;;;;;2.13;1.80;;;14.20;85.50;;;;;;4976017;28;20050;-73
2021/08/04 01:01:11;;;;;;;2.00;1.80;;;14.40;83.20;;;;;;4975799;28;20034;-71
2021/08/04 01:03:47;;;;;;;1.70;1.60;;;14.50;84.20;;;;;;4975886;28;20026;-72
2021/08/04 01:06:46;;;;;;;2.47;1.60;;;14.60;82.00;;;;;;4974678;28;20453;-72
2021/08/04 01:09:17;;;;;;;1.60;1.60;;;14.70;81.90;;;;;;4976062;28;20031;-74
2021/08/04 01:11:52;;;;;;;1.90;1.80;;;14.90;82.90;;;;;;4975621;28;20042;-75
2021/08/04 01:14:24;;;;;;;2.10;2.00;;;14.70;80.30;;;;;;4976006;28;20038;-74
2021/08/04 01:16:52;;;;;;;1.90;1.90;;;14.70;81.00;;;;;;4974332;28;20038;-74
2021/08/04 01:19:43;;;;;;;1.70;1.70;;;14.60;80.30;;;;;;4974220;28;20035;-73
2021/08/04 01:22:20;;;;;;;2.05;1.90;;;14.70;80.00;;;;;;4975664;28;20411;-74
2021/08/04 01:25:13;;;;;;;2.15;1.90;;;14.60;80.50;;;;;;4974333;28;20019;-74
2021/08/04 01:27:50;;;;;;;1.73;1.73;;;14.70;80.30;;;;;;4975778;28;20022;-73
2021/08/04 01:30:20;;;;;;;1.90;1.80;;;14.80;80.60;;;;;;4973804;28;20031;-73
2021/08/04 01:32:49;;;;;;;1.73;1.73;;;14.90;78.80;;;;;;4975048;28;20019;-72
2021/08/04 01:35:18;;;;;;;2.15;2.05;;;14.90;79.90;;;;;;4973362;28;20031;-72
2021/08/04 01:37:48;;;;;;;1.70;1.70;;;15.00;78.20;;;;;;4974778;28;20045;-73
2021/08/04 01:40:16;;;;;;;1.90;1.80;;;15.00;78.80;;;;;;4975054;28;20033;-72
2021/08/04 01:42:44;;;;;;;2.00;1.98;;;15.10;79.90;;;;;;4974146;28;20022;-73
2021/08/04 01:45:12;;;;;;;2.10;2.00;;;15.10;77.90;;;;;;4973822;28;20027;-72
2021/08/04 01:47:41;;;;;;;2.10;2.00;;;15.20;77.60;;;;;;4974891;28;20102;-73
2021/08/04 01:50:08;;;;;;;2.10;2.00;;;15.20;76.60;;;;;;4974975;28;20383;-73
2021/08/04 01:52:38;;;;;;;2.10;2.00;;;15.10;77.00;;;;;;4974759;28;20023;-72
2021/08/04 01:55:07;;;;;;;2.10;2.00;;;15.20;77.20;;;;;;4973386;28;20033;-73
2021/08/04 01:57:34;;;;;;;1.70;1.70;;;15.40;77.60;;;;;;4974722;28;20025;-73
2021/08/04 02:00:02;;;;;;;1.80;1.70;;;15.30;74.50;;;;;;4974682;28;20475;-73
2021/08/04 02:02:29;;;;;;;2.03;2.00;;;15.40;75.60;;;;;;4974626;28;20033;-72
2021/08/04 02:04:57;;;;;;;2.00;1.90;;;15.40;76.20;;;;;;4974792;28;20026;-75
2021/08/04 02:07:54;;;;;;;1.67;1.65;;;15.20;75.30;;;;;;4974772;28;20478;-72
2021/08/04 02:10:27;;;;;;;1.60;1.60;;;15.00;75.70;;;;;;4974854;28;20027;-72
2021/08/04 02:13:03;;;;;;;1.60;1.60;;;14.80;75.40;;;;;;4974537;28;20054;-71
2021/08/04 02:15:37;;;;;;;2.10;2.00;;;14.70;75.60;;;;;;4974386;28;20058;-71
2021/08/04 02:18:09;;;;;;;1.80;1.80;;;14.70;75.80;;;;;;4973360;28;20022;-73
2021/08/04 02:20:39;;;;;;;1.95;1.85;;;14.60;75.90;;;;;;4974162;28;20084;-74
2021/08/04 02:23:12;;;;;;;;;;;14.70;76.50;;;;;;4974767;28;20019;-72
2021/08/04 02:25:59;;;;;;;1.80;1.77;;;14.80;77.00;;;;;;4974154;28;19980;-72
2021/08/04 02:28:35;;;;;;;1.77;1.77;;;15.00;76.70;;;;;;4974222;28;20476;-71
2021/08/04 02:31:03;;;;;;;1.38;1.38;;;15.20;77.60;;;;;;4972611;28;20023;-72
2021/08/04 02:33:31;;;;;;;1.60;1.50;;;15.40;77.00;;;;;;4974074;28;20039;-71
2021/08/04 02:36:00;;;;;;;1.60;1.60;;;15.40;75.30;;;;;;4974240;28;20050;-70
2021/08/04 02:38:30;;;;;;;1.95;1.80;;;15.50;75.30;;;;;;4974192;28;20023;-71
2021/08/04 02:40:57;;;;;;;2.00;1.90;;;15.50;76.30;;;;;;4973857;28;20027;-71
2021/08/04 02:43:25;;;;;;;1.80;1.70;;;15.40;75.90;;;;;;4974042;28;20023;-70
2021/08/04 02:45:55;;;;;;;1.70;1.70;;;15.50;75.10;;;;;;4973456;28;20444;-69
2021/08/04 02:48:23;;;;;;;1.65;1.58;;;15.30;74.70;;;;;;4974000;28;20058;-70
2021/08/04 02:50:58;;;;;;;2.33;2.13;;;15.30;74.90;;;;;;4973937;28;20019;-70
2021/08/04 02:53:26;;;;;;;1.70;1.70;;;15.30;76.00;;;;;;4972547;28;20035;-70
2021/08/04 02:55:53;;;;;;;2.08;1.80;;;15.40;76.50;;;;;;4972438;28;20534;-71
2021/08/04 02:58:21;;;;;;;2.10;2.00;;;15.60;78.80;;;;;;4973815;28;20027;-68
2021/08/04 03:00:50;;;;;;;2.00;1.75;;;15.70;78.80;;;;;;4973910;28;20071;-69
2021/08/04 03:03:17;;;;;;;1.73;1.73;;;15.80;78.30;;;;;;4972409;28;20069;-69
2021/08/04 03:05:44;;;;;;;2.20;2.10;;;15.70;78.00;;;;;;4973760;28;20042;-69
2021/08/04 03:08:12;;;;;;;1.70;1.60;;;15.70;78.70;;;;;;4972415;28;20030;-69
2021/08/04 03:10:39;;;;;;;2.35;2.25;;;15.70;77.90;;;;;;4973836;28;20027;-70
2021/08/04 03:13:07;;;;;;;1.95;1.80;;;15.70;77.80;;;;;;4972084;28;20058;-70
2021/08/04 03:15:34;;;;;;;1.85;1.73;;;15.70;78.60;;;;;;4973688;28;20536;-70
2021/08/04 03:18:02;;;;;;;2.00;1.90;;;15.60;77.90;;;;;;4973769;28;20095;-70
2021/08/04 03:20:30;;;;;;;1.80;1.70;;;15.70;78.00;;;;;;4973609;28;20419;-71
2021/08/04 03:22:57;;;;;;;1.85;1.85;;;15.70;78.30;;;;;;4973631;28;20042;-71
2021/08/04 03:25:24;;;;;;;1.50;1.50;;;15.50;77.30;;;;;;4973656;28;20023;-71
2021/08/04 03:27:52;;;;;;;1.70;1.60;;;15.50;77.80;;;;;;4972269;28;20084;-70
2021/08/04 03:30:19;;;;;;;2.13;1.90;;;15.50;77.70;;;;;;4973582;28;20055;-70
2021/08/04 03:32:47;;;;;;;1.80;1.70;;;15.50;78.40;;;;;;4973523;28;20026;-70
2021/08/04 03:35:14;;;;;;;2.15;1.98;;;15.40;78.60;;;;;;4973553;28;20098;-70
2021/08/04 03:37:43;;;;;;;1.67;1.67;;;15.30;79.00;;;;;;4973535;28;20023;-71
2021/08/04 03:40:11;;;;;;;1.77;1.67;;;15.40;79.70;;;;;;4973306;28;20019;-72
2021/08/04 03:42:39;;;;;;;2.00;1.90;;;15.50;79.90;;;;;;4973524;28;20123;-72
2021/08/04 03:45:07;;;;;;;1.80;1.80;;;15.70;79.50;;;;;;4972082;28;20094;-71
2021/08/04 03:47:34;;;;;;;1.65;1.55;;;15.70;79.80;;;;;;4973542;28;20444;-72
2021/08/04 03:50:02;;;;;;;1.70;1.60;;;15.70;79.00;;;;;;4971966;28;20022;-70
2021/08/04 03:52:29;;;;;;;1.98;1.70;;;15.50;79.40;;;;;;4971972;28;20041;-72
2021/08/04 03:54:57;;;;;;;2.10;2.00;;;15.60;79.30;;;;;;4973470;28;20388;-71
2021/08/04 03:57:24;;;;;;;2.33;2.13;;;15.50;79.90;;;;;;4974329;28;20023;-70
2021/08/04 03:59:52;;;;;;;1.92;1.80;;;15.50;80.20;;;;;;4975340;28;20019;-71
2021/08/04 04:02:19;;;;;;;1.80;1.80;;;15.60;79.20;;;;;;4975164;28;20125;-70
2021/08/04 04:04:46;;;;;;;1.80;1.70;;;15.70;79.20;;;;;;4976688;28;20030;-71
2021/08/04 04:07:14;;;;;;;1.85;1.75;;;15.60;79.70;;;;;;4976452;28;20023;-72
2021/08/04 04:09:41;;;;;;;1.73;1.70;;;15.60;79.30;;;;;;4975176;28;20027;-72
2021/08/04 04:12:09;;;;;;;1.77;1.67;;;15.50;79.10;;;;;;4976339;28;20042;-72
2021/08/04 04:14:36;;;;;;;1.98;1.77;;;15.50;80.00;;;;;;4976378;28;20074;-73
2021/08/04 04:17:04;;;;;;;2.00;1.90;;;15.60;79.90;;;;;;4976541;28;20076;-73
2021/08/04 04:19:31;;;;;;;1.80;1.70;;;15.70;79.70;;;;;;4975185;28;20550;-73
2021/08/04 04:21:59;;;;;;;1.98;1.67;;;15.90;80.40;;;;;;4975010;28;20087;-73
2021/08/04 04:24:26;;;;;;;1.83;1.83;;;15.80;81.70;;;;;;4976168;28;20023;-73
2021/08/04 04:26:53;;;;;;;2.20;2.10;;;15.80;80.00;;;;;;4975004;28;20038;-72
2021/08/04 04:29:21;;;;;;;2.22;2.10;;;15.90;81.30;;;;;;4976415;28;20018;-73
2021/08/04 04:31:48;;;;;;;2.10;2.00;;;15.60;80.10;;;;;;4976568;28;20416;-70
2021/08/04 04:34:15;;;;;;;1.95;1.85;;;15.60;81.30;;;;;;4976412;28;20499;-71
2021/08/04 04:36:43;;;;;;;1.80;1.70;;;15.60;80.60;;;;;;4975013;28;20045;-71
2021/08/04 04:39:10;;;;;;;2.00;1.90;;;15.60;80.80;;;;;;4976374;28;20049;-69
2021/08/04 04:41:38;;;;;;;1.83;1.73;;;15.60;79.90;;;;;;4976175;28;20030;-70
2021/08/04 04:44:05;;;;;;;2.00;1.90;;;15.50;79.90;;;;;;4974737;28;20027;-69
2021/08/04 04:46:32;;;;;;;1.90;1.80;;;15.50;79.30;;;;;;4974592;28;20050;-70
2021/08/04 04:49:00;;;;;;;2.03;1.90;;;15.50;80.80;;;;;;4976006;28;20415;-70
2021/08/04 04:51:27;;;;;;;1.83;1.80;;;15.40;79.30;;;;;;4975813;28;20038;-70
2021/08/04 04:53:54;;;;;;;2.10;2.00;;;15.30;79.70;;;;;;4974174;28;20031;-70
2021/08/04 04:56:22;;;;;;;2.05;1.95;;;15.10;79.00;;;;;;4974537;28;20027;-70
2021/08/04 04:58:49;;;;;;;2.00;1.90;;;15.10;79.60;;;;;;4974662;28;20388;-70
2021/08/04 05:01:16;;;;;;;1.73;1.63;;;15.10;79.90;;;;;;4974630;28;20034;-69
2021/08/04 05:03:44;;;;;;;1.90;1.80;;;15.10;80.30;;;;;;4975669;28;20365;-70
2021/08/04 05:06:11;;;;;;;1.83;1.73;;;15.00;79.10;;;;;;4975827;28;20019;-71
2021/08/04 05:08:38;;;;;;;2.17;1.90;;;15.00;79.60;;;;;;4973625;28;20503;-69
2021/08/04 05:11:06;;;;;;;2.33;2.22;;;14.90;80.20;;;;;;4975420;28;20029;-70
2021/08/04 05:13:36;;;;;;;2.10;2.00;;;15.00;80.40;;;;;;4973988;28;20086;-70
2021/08/04 05:16:03;;;;;;;2.30;2.13;;;15.10;81.30;;;;;;4973964;28;20117;-71
2021/08/04 05:18:31;;;;;;;1.80;1.80;;;15.00;79.60;;;;;;4975353;28;20082;-70
2021/08/04 05:20:58;;;;;;;1.90;1.83;;;15.00;79.50;;;;;;4975420;28;20074;-70
2021/08/04 05:23:25;;;;;;;2.67;2.10;;;14.90;79.70;;;;;;4975174;28;20498;-69
2021/08/04 05:25:53;;;;;;;2.03;1.92;;;14.90;80.30;;;;;;4975193;28;20019;-69
2021/08/04 05:28:23;;;;;;;2.20;2.10;;;14.90;80.30;;;;;;4973830;28;20053;-69
2021/08/04 05:30:50;;;;;;;2.10;1.90;;;14.90;80.10;;;;;;4975188;28;20578;-69
2021/08/04 05:33:18;;;;;;;1.90;1.80;;;14.90;80.50;;;;;;4975232;28;20046;-70
2021/08/04 05:35:45;;;;;;;2.85;2.20;;;14.80;80.70;;;;;;4973745;28;20554;-69
2021/08/04 05:38:13;;;;;;;2.00;2.00;;;14.80;81.10;;;;;;4975119;28;20458;-69
2021/08/04 05:40:40;;;;;;;2.00;1.90;;;14.70;80.40;;;;;;4974984;28;20102;-69
2021/08/04 05:43:07;;;;;;;2.05;1.95;;;14.70;79.80;;;;;;4973737;28;20415;-71
2021/08/04 05:45:36;;;;;;;2.28;2.17;;;14.70;80.30;;;;;;4973441;28;20054;-69
2021/08/04 05:48:05;;;;;;;2.63;2.38;;;14.80;80.80;;;;;;4973448;28;20050;-69
2021/08/04 05:50:33;;;;;;;2.15;1.98;;;14.80;81.70;;;;;;4974789;28;20027;-69
2021/08/04 05:53:01;;;;;;;2.28;2.10;;;14.80;81.70;;;;;;4974613;28;20105;-70
2021/08/04 05:55:29;;;;;;;2.20;2.10;;;14.70;80.50;;;;;;4973440;28;20031;-70
2021/08/04 05:57:56;;;;;;;2.08;2.00;;;14.70;81.10;;;;;;4974954;28;20377;-70
2021/08/04 06:00:24;;;;;;;2.20;2.00;;;14.60;81.30;;;;;;4974695;28;20034;-72
2021/08/04 06:02:51;;;;;;;2.00;1.90;;;14.60;81.40;;;;;;4974645;28;20030;-70
2021/08/04 06:05:18;;;;;;;2.17;2.08;;;14.60;82.00;;;;;;4974628;28;20027;-71
2021/08/04 06:07:46;;;;;;;2.63;2.40;;;14.50;81.90;;;;;;4974380;28;20019;-70
2021/08/04 06:10:13;;;;;;;2.50;2.40;;;14.40;82.30;;;;;;4974529;28;20150;-70
2021/08/04 06:12:41;;;;;;;2.10;2.00;;;14.40;82.50;;;;;;4972794;28;20069;-70
2021/08/04 06:15:08;;;;;;;2.42;2.22;;;14.30;82.50;;;;;;4974451;28;20026;-70
2021/08/04 06:17:36;;;;;;;2.10;2.00;;;14.30;82.80;;;;;;4974806;28;20488;-70
2021/08/04 06:20:05;;;;;;;2.08;1.98;;;14.30;82.90;;;;;;4972654;28;20501;-70
2021/08/04 06:22:32;;;;;;;2.10;1.90;;;14.20;83.10;;;;;;4973641;28;20027;-70
2021/08/04 06:24:59;;;;;;;2.00;1.80;;;14.10;83.30;;;;;;4974239;28;20476;-70
2021/08/04 06:27:27;;;;;;;1.98;1.88;;;14.10;83.70;;;;;;4972981;28;20019;-69
2021/08/04 06:29:54;;;;;;;1.98;1.88;;;14.10;83.90;;;;;;4974208;28;20019;-70
2021/08/04 06:32:21;;;;;;;1.80;1.70;;;14.00;84.50;;;;;;4973996;28;20027;-71
2021/08/04 06:34:49;;;;;;;2.20;2.10;;;14.00;84.90;;;;;;4973982;28;20062;-69
2021/08/04 06:37:16;;;;;;;2.30;2.20;;;14.00;85.40;;;;;;4974174;28;20051;-70
2021/08/04 06:39:44;;;;;;;2.25;2.15;;;14.00;85.70;;;;;;4974241;28;20095;-70
2021/08/04 06:42:11;;;;;;;2.20;1.98;;;13.90;85.80;;;;;;4973885;28;20031;-70
2021/08/04 06:44:38;;;;;;;2.00;2.00;;;13.90;86.10;;;;;;4972671;28;20122;-70
2021/08/04 06:47:06;;;;;;;2.15;2.10;;;13.80;86.40;;;;;;4974011;28;20379;-70
2021/08/04 06:49:33;;;;;;;2.20;2.10;;;13.80;86.70;;;;;;4973796;28;20023;-70
2021/08/04 06:52:01;;;;;;;2.65;2.45;;;13.70;86.90;;;;;;4973821;28;20395;-71
2021/08/04 06:54:28;;;;;;;2.00;1.90;;;13.70;87.10;;;;;;4972535;28;20113;-70
2021/08/04 06:56:55;;;;;;;1.90;1.80;;;13.60;87.60;;;;;;4973910;28;20415;-70
2021/08/04 06:59:23;;;;;;;1.98;1.88;;;13.50;88.30;;;;;;4973818;28;20033;-73
2021/08/04 07:01:50;;;;;;;2.30;2.10;;;13.50;88.50;;;;;;4973761;28;20423;-70
2021/08/04 07:04:17;;;;;;;2.60;2.20;;;13.40;88.60;;;;;;4973846;28;20369;-69
2021/08/04 07:06:53;;;;;;;3.63;1.90;;;13.40;89.10;;;;;;4973643;28;20030;-70
2021/08/04 07:09:20;;;;;;;2.00;1.90;;;13.30;89.10;;;;;;4973633;28;20023;-70
2021/08/04 07:11:47;;;;;;;2.45;2.08;;;13.20;89.30;;;;;;4972064;28;20142;-70
2021/08/04 07:14:18;;;;;;;1.95;1.90;;;13.20;89.60;;;;;;4972339;28;20037;-73
2021/08/04 07:16:47;;;;;;;2.05;1.98;;;13.10;89.80;;;;;;4973728;28;20027;-74
2021/08/04 07:19:15;;;;;;;2.25;2.05;;;13.10;90.10;;;;;;4972338;28;20039;-71
2021/08/04 07:21:43;;;;;;;2.20;2.00;;;13.10;90.10;;;;;;4973361;28;20055;-71
2021/08/04 07:24:11;;;;;;;2.28;2.17;;;13.00;90.20;;;;;;4973575;28;20019;-70
2021/08/04 07:26:41;;;;;;;2.30;2.10;;;12.90;90.30;;;;;;4972417;28;20042;-70
2021/08/04 07:29:09;;;;;;;2.00;1.90;;;12.90;90.40;;;;;;4972501;28;20391;-71
2021/08/04 07:31:37;;;;;;;2.35;2.20;;;12.90;90.50;;;;;;4973585;28;20034;-70
2021/08/04 07:34:04;;;;;;;2.92;2.80;;;12.90;90.50;;;;;;4977222;28;20077;-70
2021/08/04 07:36:32;;;;;;;1.67;1.65;;;12.80;90.70;;;;;;4977201;28;20396;-70
2021/08/04 07:39:00;;;;;;;2.35;2.25;;;12.80;90.60;;;;;;4977131;28;20034;-71
2021/08/04 07:41:27;;;;;;;1.77;1.67;;;12.80;90.60;;;;;;4977245;28;20057;-72
2021/08/04 07:43:54;;;;;;;4.35;3.22;;;12.80;90.70;;;;;;4977143;28;20019;-70
2021/08/04 07:46:24;;;;;;;3.10;1.90;;;12.80;90.90;;;;;;4976938;28;20027;-71
2021/08/04 07:48:52;;;;;;;2.40;2.20;;;12.80;90.80;;;;;;4976900;28;20165;-71
2021/08/04 07:51:19;;;;;;;3.15;2.72;;;12.70;91.00;;;;;;4976901;28;20265;-72
2021/08/04 07:53:47;;;;;;;9.02;4.75;;;12.70;91.00;;;;;;4976922;28;20025;-71
2021/08/04 07:56:19;;;;;;;6.75;3.25;;;12.70;91.20;;;;;;4977031;28;20077;-72
2021/08/04 07:58:48;;;;;;;2.20;2.10;;;12.70;91.20;;;;;;4975812;28;20480;-72
2021/08/04 08:01:15;;;;;;;1.70;1.60;;;12.60;91.10;;;;;;4975338;28;20034;-71
2021/08/04 08:03:43;;;;;;;1.92;1.83;;;12.60;91.10;;;;;;4977009;28;20380;-72
2021/08/04 08:06:11;;;;;;;2.03;1.92;;;12.60;91.30;;;;;;4975375;28;20081;-72
2021/08/04 08:08:38;;;;;;;3.17;2.70;;;12.50;91.30;;;;;;4976947;28;20484;-70
2021/08/04 08:11:05;;;;;;;3.30;2.60;;;12.50;91.50;;;;;;4976743;28;20472;-71
2021/08/04 08:13:33;;;;;;;2.35;2.25;;;12.50;91.40;;;;;;4976484;28;20105;-72
2021/08/04 08:16:00;;;;;;;2.30;2.20;;;12.50;91.50;;;;;;4976424;28;20105;-74
2021/08/04 08:18:27;;;;;;;2.60;2.40;;;12.40;91.70;;;;;;4976427;28;20077;-74
2021/08/04 08:20:55;;;;;;;6.43;4.18;;;12.40;91.90;;;;;;4974799;28;20031;-74
2021/08/04 08:23:23;;;;;;;2.30;2.20;;;12.40;92.70;;;;;;4974947;28;20105;-72
2021/08/04 08:25:50;;;;;;;2.72;2.60;;;12.30;91.90;;;;;;4976191;28;20050;-74
2021/08/04 08:28:17;;;;;;;3.83;3.17;;;12.30;92.10;;;;;;4975132;28;20041;-73
2021/08/04 08:30:45;;;;;;;2.75;2.60;;;12.30;92.40;;;;;;4976367;28;20033;-72
2021/08/04 08:33:13;;;;;;;3.50;2.97;;;12.20;92.50;;;;;;4976432;28;20031;-73
2021/08/04 08:35:40;;;;;;;2.92;2.78;;;12.20;92.70;;;;;;4974823;28;20467;-71
2021/08/04 08:38:08;;;;;;;2.70;2.50;;;12.10;92.50;;;;;;4976168;28;20058;-72
2021/08/04 08:40:35;;;;;;;2.20;2.10;;;12.00;92.60;;;;;;4976091;28;20373;-72
2021/08/04 08:43:03;;;;;;;2.03;1.92;;;12.00;92.70;;;;;;4974306;28;20027;-72
2021/08/04 08:45:31;;;;;;;2.08;1.98;;;12.00;92.60;;;;;;4975357;28;20019;-72
2021/08/04 08:47:58;;;;;;;2.08;1.95;;;12.10;92.70;;;;;;4975740;28;20106;-72
2021/08/04 08:50:26;;;;;;;2.83;2.70;;;12.00;92.90;;;;;;4975810;28;20074;-72
2021/08/04 08:52:56;;;;;;;2.90;2.70;;;12.00;92.80;;;;;;4974172;28;20023;-72
2021/08/04 08:55:25;;;;;;;2.38;2.28;;;12.00;92.90;;;;;;4975760;28;20031;-72
2021/08/04 08:57:52;;;;;;;2.53;2.33;;;12.00;93.00;;;;;;4974146;28;20432;-72
2021/08/04 09:00:20;;;;;;;3.03;2.55;;;11.90;93.00;;;;;;4975492;28;20026;-71
2021/08/04 09:02:47;;;;;;;2.33;2.15;;;11.90;93.00;;;;;;4975744;28;20026;-71
2021/08/04 09:05:16;;;;;;;2.42;2.20;;;11.90;93.00;;;;;;4975531;28;20023;-72
2021/08/04 09:07:46;;;;;;;3.00;2.75;;;11.90;93.10;;;;;;4975616;28;20480;-70
2021/08/04 09:10:37;;;;;;;2.80;2.60;;;11.80;93.30;;;;;;4975775;28;20034;-73
2021/08/04 09:13:06;;;;;;;2.60;2.40;;;11.80;93.40;;;;;;4973903;28;20289;-71
2021/08/04 09:15:40;;;;;;;2.20;2.10;;;11.70;93.40;;;;;;4975295;28;20070;-71
2021/08/04 09:18:16;;;;;;;2.50;2.40;;;11.70;93.40;;;;;;4975291;28;20014;-73
2021/08/04 09:20:54;;;;;;;2.17;2.08;;;11.70;93.50;;;;;;4975398;28;20197;-71
2021/08/04 09:23:26;;;;;;;2.22;2.13;;;11.70;93.50;;;;;;4973729;28;20027;-72
2021/08/04 09:26:04;;;;;;;3.00;2.30;;;11.70;93.60;;;;;;4973697;28;20122;-72
2021/08/04 09:29:00;;;;;;;2.47;2.38;;;11.70;93.80;;;;;;4977101;28;20068;-72
2021/08/04 09:31:51;;;;;;;2.10;2.00;;;11.70;94.10;;;;;;4976774;28;20498;-72
2021/08/04 09:34:29;;;;;;;2.10;2.00;;;11.70;93.80;;;;;;4974884;28;20034;-72
2021/08/04 09:37:12;;;;;;;2.17;2.08;;;11.70;94.00;;;;;;4974666;28;20053;-72
2021/08/04 09:39:45;;;;;;;2.53;2.20;;;11.60;94.10;;;;;;4974169;28;20030;-71
2021/08/04 09:42:15;;;;;;;2.00;1.90;;;11.60;94.10;;;;;;4975156;28;20491;-72
2021/08/04 09:45:02;;;;;;;2.22;2.13;;;11.60;94.20;;;;;;4973333;28;20031;-72
2021/08/04 09:47:31;;;;;;;2.10;2.00;;;11.50;94.30;;;;;;4974663;28;20042;-74
2021/08/04 09:50:09;;;;;;;2.72;2.20;;;11.50;94.50;;;;;;4974635;28;20499;-73
2021/08/04 09:52:52;;;;;;;2.40;2.20;;;11.50;94.50;;;;;;4973354;28;20189;-72
2021/08/04 09:55:20;;;;;;;2.33;2.22;;;11.40;94.70;;;;;;4974524;28;20034;-71
2021/08/04 09:57:52;;;;;;;2.33;2.22;;;11.40;94.80;;;;;;4974472;28;20480;-72
2021/08/04 10:00:21;;;;;;;2.20;2.10;;;11.40;94.60;;;;;;4973064;28;20042;-71
2021/08/04 10:02:48;;;;;;;2.40;2.30;;;11.50;94.70;;;;;;4974515;28;20089;-71
2021/08/04 10:05:19;;;;;;;2.38;2.28;;;11.40;94.80;;;;;;4974577;28;20038;-70
2021/08/04 10:08:09;;;;;;;2.42;2.33;;;11.40;94.80;;;;;;4973111;28;20495;-71
2021/08/04 10:10:39;;;;;;;2.27;2.17;;;11.30;94.90;;;;;;4974368;28;20031;-71
2021/08/04 10:13:09;;;;;;;2.47;2.30;;;11.30;95.20;;;;;;4972799;28;20508;-72
2021/08/04 10:15:41;;;;;;;2.13;2.03;;;11.30;95.30;;;;;;4974259;28;20031;-71
2021/08/04 10:18:30;;;;;;;2.35;2.25;;;11.20;95.10;;;;;;4974250;28;20038;-70
2021/08/04 10:21:08;;;;;;;2.60;2.40;;;11.20;95.20;;;;;;4974239;28;20037;-73
2021/08/04 10:23:36;;;;;;;2.40;2.30;;;11.20;95.20;;;;;;4974321;28;20022;-72
2021/08/04 10:26:05;;;;;;;2.40;2.20;;;11.20;95.10;;;;;;4974320;28;20054;-74
2021/08/04 10:28:33;;;;;;;2.40;2.30;;;11.20;95.10;;;;;;4974132;28;20026;-70
2021/08/04 10:31:01;;;;;;;2.25;2.15;;;11.20;95.20;;;;;;4972643;28;20475;-70
2021/08/04 10:33:31;;;;;;;2.33;2.22;;;11.20;95.20;;;;;;4974203;28;20038;-72
2021/08/04 10:36:06;;;;;;;2.50;2.30;;;11.10;95.50;;;;;;4972580;28;20030;-72
2021/08/04 10:38:36;;;;;;;2.63;2.42;;;11.10;95.40;;;;;;4974087;28;20395;-72
2021/08/04 10:41:22;;;;;;;3.10;2.65;;;11.10;95.50;;;;;;4974012;28;20023;-72
2021/08/04 10:44:01;;;;;;;2.30;2.10;;;11.10;95.60;;;;;;4974060;28;20123;-71
2021/08/04 10:46:28;;;;;;;2.50;2.40;;;11.10;95.50;;;;;;4973895;28;20411;-71
2021/08/04 10:49:04;;;;;;;3.83;2.40;;;11.10;95.60;;;;;;4973944;28;20054;-71
2021/08/04 10:51:41;;;;;;;2.30;2.20;;;11.20;95.90;;;;;;4974388;28;20050;-71
2021/08/04 10:54:17;;;;;;;2.25;2.20;;;11.20;95.50;;;;;;4972639;28;20484;-71
2021/08/04 10:56:44;;;;;;;2.20;2.10;;;11.30;95.40;;;;;;4973803;28;20085;-70
2021/08/04 10:59:12;;;;;;;2.30;2.20;;;11.20;95.50;;;;;;4973723;28;20542;-70
2021/08/04 11:01:50;;;;;;;2.25;2.05;;;11.30;95.50;;;;;;4973927;28;20027;-70
2021/08/04 11:04:43;;;;;;;2.40;2.30;;;11.20;95.40;;;;;;4973907;28;20385;-71
2021/08/04 11:07:11;;;;;;;2.22;2.13;;;11.20;95.60;;;;;;4974598;28;20019;-71
2021/08/04 11:09:51;;;;;;;2.20;2.10;;;11.80;95.80;;;;;;4976497;28;20488;-70
2021/08/04 11:12:43;;;;;;;2.28;2.15;;;11.10;95.90;;;;;;4977387;28;20054;-71
2021/08/04 11:15:30;;;;;;;2.00;1.90;;;11.10;96.00;;;;;;4977681;28;20392;-70
2021/08/04 11:18:17;;;;;;;2.10;2.00;;;11.20;95.80;;;;;;4977640;28;20030;-72
2021/08/04 11:21:12;;;;;;;1.70;1.70;;;11.20;95.80;;;;;;4976241;28;20502;-70
2021/08/04 11:23:48;;;;;;;1.80;1.80;;;11.30;95.60;;;;;;4977467;28;20027;-70
2021/08/04 11:26:36;;;;;;;2.00;1.90;;;11.30;95.60;;;;;;4977533;28;20365;-71
2021/08/04 11:29:08;;;;;;;2.20;2.10;;;11.30;95.70;;;;;;4977209;28;20027;-71
2021/08/04 11:31:35;;;;;;;2.40;2.20;;;11.20;95.80;;;;;;4975825;28;20030;-70
2021/08/04 11:34:30;;;;;;;2.20;2.10;;;11.20;95.70;;;;;;4977190;28;20077;-71
2021/08/04 11:37:01;;;;;;;2.50;2.40;;;11.30;95.60;;;;;;4977080;28;20030;-71
2021/08/04 11:39:29;;;;;;;2.35;2.25;;;11.30;95.60;;;;;;4975880;28;20435;-73
2021/08/04 11:41:57;;;;;;;2.10;2.05;;;11.20;95.70;;;;;;4977052;28;20506;-71
2021/08/04 11:44:28;;;;;;;2.10;2.00;;;11.20;95.90;;;;;;4977142;28;20019;-71
2021/08/04 11:47:06;;;;;;;2.20;2.17;;;11.30;95.80;;;;;;4975605;28;20396;-71
2021/08/04 11:49:36;;;;;;;2.33;2.22;;;11.20;95.80;;;;;;4975740;28;20114;-71
2021/08/04 11:52:14;;;;;;;2.20;2.10;;;11.20;95.90;;;;;;4977217;28;20038;-71
2021/08/04 11:54:59;;;;;;;1.95;1.90;;;11.20;95.90;;;;;;4975611;28;20086;-70
2021/08/04 11:57:37;;;;;;;1.90;1.90;;;11.20;96.00;;;;;;4976883;28;20118;-71
2021/08/04 12:00:18;;;;;;;2.30;2.20;;;11.20;96.00;;;;;;4975496;28;20142;-70
2021/08/04 12:02:46;;;;;;;2.40;2.30;;;11.20;96.20;;;;;;4975472;28;20034;-70
2021/08/04 12:05:15;;;;;;;2.60;2.50;;;11.20;96.10;;;;;;4975309;28;20438;-71
2021/08/04 12:07:43;;;;;;;2.30;2.30;;;11.20;96.10;;;;;;4976688;28;20047;-72
2021/08/04 12:10:13;;;;;;;2.60;2.50;;;11.20;96.10;;;;;;4975242;28;20439;-71
2021/08/04 12:12:47;;;;;;;2.72;2.60;;;11.10;96.10;;;;;;4975038;28;20050;-71
2021/08/04 12:15:27;;;;;;;2.70;2.60;;;11.10;96.20;;;;;;4976534;28;20035;-71
2021/08/04 12:18:06;;;;;;;2.70;2.60;;;11.10;96.30;;;;;;4975198;28;20118;-71
2021/08/04 12:20:37;;;;;;;2.60;2.50;;;11.00;96.30;;;;;;4974993;28;20070;-73
2021/08/04 12:23:07;;;;;;;2.70;2.60;;;11.10;96.20;;;;;;4976718;28;20055;-72
2021/08/04 12:25:38;;;;;;;2.38;2.28;;;11.10;96.20;;;;;;4975130;28;20049;-70
2021/08/04 12:28:06;;;;;;;2.63;2.50;;;11.10;96.20;;;;;;4976455;28;20054;-72
2021/08/04 12:30:38;;;;;;;2.50;2.40;;;11.00;96.30;;;;;;4974890;28;20456;-72
2021/08/04 12:33:18;;;;;;;2.60;2.50;;;11.00;96.30;;;;;;4974997;28;20039;-72
2021/08/04 12:38:49;;;;;;;2.60;2.40;;;10.90;96.50;;;;;;4976415;28;20054;-71
2021/08/04 12:41:25;;;;;;;2.80;2.70;;;10.90;96.70;;;;;;4974635;28;20022;-73
2021/08/04 12:43:55;;;;;;;3.00;2.90;;;10.80;96.80;;;;;;4974822;28;20023;-72
2021/08/04 12:46:40;;;;;;;2.90;2.80;;;10.90;97.00;;;;;;4976060;28;20075;-71
2021/08/04 12:49:22;;;;;;;4.18;2.88;;;10.90;97.10;;;;;;4974609;28;20027;-72
2021/08/04 12:52:00;;;;;;;2.70;2.60;;;10.90;97.10;;;;;;4974716;28;20536;-72
2021/08/04 12:54:30;;;;;;;2.90;2.80;;;10.80;97.00;;;;;;4975977;28;20045;-72
2021/08/04 12:56:58;;;;;;;2.90;2.80;;;10.90;97.20;;;;;;4974476;28;20046;-72
2021/08/04 12:59:41;;;;;;;2.90;2.80;;;10.80;97.30;;;;;;4974477;28;20181;-72
2021/08/04 13:02:14;;;;;;;3.00;2.90;;;10.80;97.20;;;;;;4975779;28;20121;-73
2021/08/04 13:04:42;;;;;;;3.10;3.00;;;10.80;97.30;;;;;;4975952;28;20026;-71
2021/08/04 13:07:12;;;;;;;2.83;2.72;;;10.80;97.20;;;;;;4975655;28;20026;-72
2021/08/04 13:09:45;;;;;;;2.70;2.55;;;10.90;97.30;;;;;;4974251;28;20118;-72